sensor_id;sensor_type;location;lat;lon;timestamp;P1;durP1;ratioP1;P2;durP2;ratioP2
11191;SDS011;5652;48.406;10.820;2022-09-29T00:00:25;2.17;;;1.58;;
11191;SDS011;5652;48.406;10.820;2022-09-29T00:02:52;1.67;;;1.48;;
11191;SDS011;5652;48.406;10.820;2022-09-29T00:05:20;2.50;;;1.45;;
11191;SDS011;5652;48.406;10.820;2022-09-29T00:07:48;3.10;;;1.40;;
11191;SDS011;5652;48.406;10.820;2022-09-29T00:10:15;2.65;;;1.60;;
11191;SDS011;5652;48.406;10.820;2022-09-29T00:12:43;2.25;;;1.63;;
11191;SDS011;5652;48.406;10.820;2022-09-29T00:15:10;2.78;;;1.60;;
11191;SDS011;5652;48.406;10.820;2022-09-29T00:17:38;2.90;;;1.50;;
11191;SDS011;5652;48.406;10.820;2022-09-29T00:20:06;2.00;;;1.63;;
11191;SDS011;5652;48.406;10.820;2022-09-29T00:22:34;2.13;;;1.60;;
11191;SDS011;5652;48.406;10.820;2022-09-29T00:25:03;1.83;;;1.60;;
11191;SDS011;5652;48.406;10.820;2022-09-29T00:27:30;2.53;;;1.70;;
11191;SDS011;5652;48.406;10.820;2022-09-29T00:29:58;9.77;;;1.88;;
11191;SDS011;5652;48.406;10.820;2022-09-29T00:32:25;2.17;;;1.60;;
11191;SDS011;5652;48.406;10.820;2022-09-29T00:34:52;6.25;;;1.60;;
11191;SDS011;5652;48.406;10.820;2022-09-29T00:37:19;2.50;;;1.65;;
11191;SDS011;5652;48.406;10.820;2022-09-29T00:39:47;3.53;;;1.48;;
11191;SDS011;5652;48.406;10.820;2022-09-29T00:42:17;2.97;;;1.67;;
11191;SDS011;5652;48.406;10.820;2022-09-29T00:44:52;1.80;;;1.40;;
11191;SDS011;5652;48.406;10.820;2022-09-29T00:47:20;1.92;;;1.45;;
11191;SDS011;5652;48.406;10.820;2022-09-29T00:49:50;1.70;;;1.50;;
11191;SDS011;5652;48.406;10.820;2022-09-29T00:52:22;2.40;;;1.40;;
11191;SDS011;5652;48.406;10.820;2022-09-29T00:54:52;4.70;;;1.60;;
11191;SDS011;5652;48.406;10.820;2022-09-29T00:57:23;2.33;;;1.60;;
11191;SDS011;5652;48.406;10.820;2022-09-29T00:59:52;2.13;;;1.50;;
11191;SDS011;5652;48.406;10.820;2022-09-29T01:02:22;2.60;;;1.55;;
11191;SDS011;5652;48.406;10.820;2022-09-29T01:04:50;2.38;;;1.70;;
11191;SDS011;5652;48.406;10.820;2022-09-29T01:07:19;1.90;;;1.50;;
11191;SDS011;5652;48.406;10.820;2022-09-29T01:09:47;2.08;;;1.42;;
11191;SDS011;5652;48.406;10.820;2022-09-29T01:12:16;3.63;;;1.92;;
11191;SDS011;5652;48.406;10.820;2022-09-29T01:14:44;2.65;;;1.70;;
11191;SDS011;5652;48.406;10.820;2022-09-29T01:17:12;2.50;;;1.70;;
11191;SDS011;5652;48.406;10.820;2022-09-29T01:19:44;2.72;;;1.63;;
11191;SDS011;5652;48.406;10.820;2022-09-29T01:22:18;2.10;;;1.63;;
11191;SDS011;5652;48.406;10.820;2022-09-29T01:24:54;4.10;;;1.80;;
11191;SDS011;5652;48.406;10.820;2022-09-29T01:30:24;2.58;;;1.95;;
11191;SDS011;5652;48.406;10.820;2022-09-29T01:32:59;3.43;;;2.07;;
11191;SDS011;5652;48.406;10.820;2022-09-29T01:35:29;4.28;;;1.95;;
11191;SDS011;5652;48.406;10.820;2022-09-29T01:38:04;2.83;;;1.85;;
11191;SDS011;5652;48.406;10.820;2022-09-29T01:40:36;3.80;;;2.20;;
11191;SDS011;5652;48.406;10.820;2022-09-29T01:43:06;7.35;;;2.20;;
11191;SDS011;5652;48.406;10.820;2022-09-29T01:45:35;3.40;;;2.08;;
11191;SDS011;5652;48.406;10.820;2022-09-29T01:48:07;2.67;;;2.00;;
11191;SDS011;5652;48.406;10.820;2022-09-29T01:50:36;2.92;;;1.98;;
11191;SDS011;5652;48.406;10.820;2022-09-29T01:53:07;3.28;;;2.10;;
11191;SDS011;5652;48.406;10.820;2022-09-29T01:55:37;2.90;;;2.00;;
11191;SDS011;5652;48.406;10.820;2022-09-29T01:58:08;2.55;;;1.90;;
11191;SDS011;5652;48.406;10.820;2022-09-29T02:00:36;2.50;;;1.85;;
11191;SDS011;5652;48.406;10.820;2022-09-29T02:03:07;3.40;;;2.33;;
11191;SDS011;5652;48.406;10.820;2022-09-29T02:05:36;5.47;;;1.90;;
11191;SDS011;5652;48.406;10.820;2022-09-29T02:08:06;2.70;;;1.90;;
11191;SDS011;5652;48.406;10.820;2022-09-29T02:10:36;2.53;;;1.90;;
11191;SDS011;5652;48.406;10.820;2022-09-29T02:13:06;2.40;;;1.83;;
11191;SDS011;5652;48.406;10.820;2022-09-29T02:15:35;2.33;;;1.80;;
11191;SDS011;5652;48.406;10.820;2022-09-29T02:18:05;2.60;;;1.95;;
11191;SDS011;5652;48.406;10.820;2022-09-29T02:20:37;3.10;;;2.15;;
11191;SDS011;5652;48.406;10.820;2022-09-29T02:23:04;2.85;;;1.90;;
11191;SDS011;5652;48.406;10.820;2022-09-29T02:25:34;2.70;;;2.00;;
11191;SDS011;5652;48.406;10.820;2022-09-29T02:28:01;3.10;;;2.10;;
11191;SDS011;5652;48.406;10.820;2022-09-29T02:30:28;2.38;;;1.90;;
11191;SDS011;5652;48.406;10.820;2022-09-29T02:32:56;3.00;;;2.10;;
11191;SDS011;5652;48.406;10.820;2022-09-29T02:35:23;4.22;;;2.15;;
11191;SDS011;5652;48.406;10.820;2022-09-29T02:37:56;2.10;;;1.80;;
11191;SDS011;5652;48.406;10.820;2022-09-29T02:40:27;2.55;;;2.03;;
11191;SDS011;5652;48.406;10.820;2022-09-29T02:43:00;4.00;;;2.00;;
11191;SDS011;5652;48.406;10.820;2022-09-29T02:45:34;3.97;;;2.22;;
11191;SDS011;5652;48.406;10.820;2022-09-29T02:48:16;4.00;;;2.42;;
11191;SDS011;5652;48.406;10.820;2022-09-29T02:50:51;3.45;;;2.28;;
11191;SDS011;5652;48.406;10.820;2022-09-29T02:53:24;3.97;;;2.20;;
11191;SDS011;5652;48.406;10.820;2022-09-29T02:55:57;3.30;;;2.17;;
11191;SDS011;5652;48.406;10.820;2022-09-29T02:58:27;2.43;;;1.93;;
11191;SDS011;5652;48.406;10.820;2022-09-29T03:00:56;3.13;;;2.15;;
11191;SDS011;5652;48.406;10.820;2022-09-29T03:03:24;6.65;;;2.30;;
11191;SDS011;5652;48.406;10.820;2022-09-29T03:05:51;5.72;;;2.28;;
11191;SDS011;5652;48.406;10.820;2022-09-29T03:08:19;2.95;;;2.30;;
11191;SDS011;5652;48.406;10.820;2022-09-29T03:10:48;2.97;;;2.20;;
11191;SDS011;5652;48.406;10.820;2022-09-29T03:13:15;4.88;;;2.20;;
11191;SDS011;5652;48.406;10.820;2022-09-29T03:15:43;3.35;;;1.92;;
11191;SDS011;5652;48.406;10.820;2022-09-29T03:18:10;6.40;;;2.30;;
11191;SDS011;5652;48.406;10.820;2022-09-29T03:20:37;3.50;;;2.00;;
11191;SDS011;5652;48.406;10.820;2022-09-29T03:23:05;3.45;;;2.38;;
11191;SDS011;5652;48.406;10.820;2022-09-29T03:25:32;3.45;;;2.20;;
11191;SDS011;5652;48.406;10.820;2022-09-29T03:28:00;3.92;;;2.10;;
11191;SDS011;5652;48.406;10.820;2022-09-29T03:30:28;3.33;;;2.30;;
11191;SDS011;5652;48.406;10.820;2022-09-29T03:32:55;4.22;;;2.25;;
11191;SDS011;5652;48.406;10.820;2022-09-29T03:35:22;3.37;;;2.20;;
11191;SDS011;5652;48.406;10.820;2022-09-29T03:37:50;4.50;;;2.35;;
11191;SDS011;5652;48.406;10.820;2022-09-29T03:40:17;4.65;;;2.10;;
11191;SDS011;5652;48.406;10.820;2022-09-29T03:42:45;4.32;;;2.17;;
11191;SDS011;5652;48.406;10.820;2022-09-29T03:45:14;5.72;;;2.30;;
11191;SDS011;5652;48.406;10.820;2022-09-29T03:47:41;2.80;;;1.85;;
11191;SDS011;5652;48.406;10.820;2022-09-29T03:50:09;6.88;;;2.20;;
11191;SDS011;5652;48.406;10.820;2022-09-29T03:52:36;4.13;;;2.03;;
11191;SDS011;5652;48.406;10.820;2022-09-29T03:55:04;3.13;;;1.83;;
11191;SDS011;5652;48.406;10.820;2022-09-29T03:57:31;3.22;;;1.83;;
11191;SDS011;5652;48.406;10.820;2022-09-29T03:59:58;4.43;;;1.90;;
11191;SDS011;5652;48.406;10.820;2022-09-29T04:02:27;5.40;;;2.20;;
11191;SDS011;5652;48.406;10.820;2022-09-29T04:04:55;4.07;;;2.30;;
11191;SDS011;5652;48.406;10.820;2022-09-29T04:07:22;3.38;;;2.28;;
11191;SDS011;5652;48.406;10.820;2022-09-29T04:09:49;2.90;;;1.90;;
11191;SDS011;5652;48.406;10.820;2022-09-29T04:12:16;73.50;;;3.75;;
11191;SDS011;5652;48.406;10.820;2022-09-29T04:14:44;2.78;;;1.92;;
11191;SDS011;5652;48.406;10.820;2022-09-29T04:17:11;3.50;;;2.05;;
11191;SDS011;5652;48.406;10.820;2022-09-29T04:19:40;3.25;;;2.08;;
11191;SDS011;5652;48.406;10.820;2022-09-29T04:22:07;2.90;;;1.95;;
11191;SDS011;5652;48.406;10.820;2022-09-29T04:24:35;2.70;;;1.90;;
11191;SDS011;5652;48.406;10.820;2022-09-29T04:27:02;6.78;;;2.20;;
11191;SDS011;5652;48.406;10.820;2022-09-29T04:29:30;4.68;;;2.30;;
11191;SDS011;5652;48.406;10.820;2022-09-29T04:31:57;5.07;;;2.40;;
11191;SDS011;5652;48.406;10.820;2022-09-29T04:34:24;3.38;;;2.28;;
11191;SDS011;5652;48.406;10.820;2022-09-29T04:36:54;3.60;;;2.00;;
11191;SDS011;5652;48.406;10.820;2022-09-29T04:39:21;3.97;;;2.60;;
11191;SDS011;5652;48.406;10.820;2022-09-29T04:41:48;4.10;;;2.33;;
11191;SDS011;5652;48.406;10.820;2022-09-29T04:44:16;5.15;;;2.63;;
11191;SDS011;5652;48.406;10.820;2022-09-29T04:46:44;5.22;;;2.63;;
11191;SDS011;5652;48.406;10.820;2022-09-29T04:49:11;5.53;;;2.40;;
11191;SDS011;5652;48.406;10.820;2022-09-29T04:51:39;3.97;;;2.35;;
11191;SDS011;5652;48.406;10.820;2022-09-29T04:54:07;6.40;;;2.70;;
11191;SDS011;5652;48.406;10.820;2022-09-29T04:56:34;4.05;;;2.33;;
11191;SDS011;5652;48.406;10.820;2022-09-29T04:59:02;2.58;;;1.98;;
11191;SDS011;5652;48.406;10.820;2022-09-29T05:01:29;3.67;;;2.60;;
11191;SDS011;5652;48.406;10.820;2022-09-29T05:03:56;4.57;;;2.58;;
11191;SDS011;5652;48.406;10.820;2022-09-29T05:06:24;5.35;;;2.50;;
11191;SDS011;5652;48.406;10.820;2022-09-29T05:08:51;3.83;;;2.33;;
11191;SDS011;5652;48.406;10.820;2022-09-29T05:11:20;6.53;;;2.40;;
11191;SDS011;5652;48.406;10.820;2022-09-29T05:13:48;4.28;;;2.63;;
11191;SDS011;5652;48.406;10.820;2022-09-29T05:16:15;4.85;;;2.80;;
11191;SDS011;5652;48.406;10.820;2022-09-29T05:18:43;5.95;;;2.63;;
11191;SDS011;5652;48.406;10.820;2022-09-29T05:21:10;6.63;;;3.17;;
11191;SDS011;5652;48.406;10.820;2022-09-29T05:23:37;9.90;;;3.13;;
11191;SDS011;5652;48.406;10.820;2022-09-29T05:26:06;4.93;;;3.10;;
11191;SDS011;5652;48.406;10.820;2022-09-29T05:28:36;5.60;;;3.05;;
11191;SDS011;5652;48.406;10.820;2022-09-29T05:31:04;5.05;;;2.95;;
11191;SDS011;5652;48.406;10.820;2022-09-29T05:33:32;5.20;;;3.40;;
11191;SDS011;5652;48.406;10.820;2022-09-29T05:36:00;4.97;;;3.50;;
11191;SDS011;5652;48.406;10.820;2022-09-29T05:38:27;6.57;;;3.20;;
11191;SDS011;5652;48.406;10.820;2022-09-29T05:40:55;5.32;;;3.20;;
11191;SDS011;5652;48.406;10.820;2022-09-29T05:43:22;6.32;;;3.13;;
11191;SDS011;5652;48.406;10.820;2022-09-29T05:45:51;5.00;;;3.20;;
11191;SDS011;5652;48.406;10.820;2022-09-29T05:48:18;5.68;;;2.90;;
11191;SDS011;5652;48.406;10.820;2022-09-29T05:50:45;4.90;;;3.47;;
11191;SDS011;5652;48.406;10.820;2022-09-29T05:53:13;6.72;;;3.22;;
11191;SDS011;5652;48.406;10.820;2022-09-29T05:55:40;5.00;;;2.90;;
11191;SDS011;5652;48.406;10.820;2022-09-29T05:58:07;5.10;;;3.30;;
11191;SDS011;5652;48.406;10.820;2022-09-29T06:00:35;4.80;;;3.13;;
11191;SDS011;5652;48.406;10.820;2022-09-29T06:03:03;4.65;;;3.58;;
11191;SDS011;5652;48.406;10.820;2022-09-29T06:05:30;5.63;;;3.22;;
11191;SDS011;5652;48.406;10.820;2022-09-29T06:08:00;5.85;;;3.88;;
11191;SDS011;5652;48.406;10.820;2022-09-29T06:10:28;5.00;;;3.55;;
11191;SDS011;5652;48.406;10.820;2022-09-29T06:12:55;6.72;;;3.15;;
11191;SDS011;5652;48.406;10.820;2022-09-29T06:15:22;4.63;;;3.00;;
11191;SDS011;5652;48.406;10.820;2022-09-29T06:17:53;4.43;;;2.92;;
11191;SDS011;5652;48.406;10.820;2022-09-29T06:20:22;4.50;;;2.97;;
11191;SDS011;5652;48.406;10.820;2022-09-29T06:22:52;6.45;;;2.90;;
11191;SDS011;5652;48.406;10.820;2022-09-29T06:25:19;4.65;;;2.83;;
11191;SDS011;5652;48.406;10.820;2022-09-29T06:27:46;5.45;;;3.00;;
11191;SDS011;5652;48.406;10.820;2022-09-29T06:30:14;7.40;;;3.05;;
11191;SDS011;5652;48.406;10.820;2022-09-29T06:32:41;7.35;;;3.25;;
11191;SDS011;5652;48.406;10.820;2022-09-29T06:35:08;7.32;;;3.33;;
11191;SDS011;5652;48.406;10.820;2022-09-29T06:37:56;4.70;;;3.22;;
11191;SDS011;5652;48.406;10.820;2022-09-29T06:40:23;6.68;;;3.30;;
11191;SDS011;5652;48.406;10.820;2022-09-29T06:42:52;6.10;;;3.17;;
11191;SDS011;5652;48.406;10.820;2022-09-29T06:45:19;4.88;;;3.30;;
11191;SDS011;5652;48.406;10.820;2022-09-29T06:47:46;4.35;;;3.20;;
11191;SDS011;5652;48.406;10.820;2022-09-29T06:50:14;6.70;;;3.50;;
11191;SDS011;5652;48.406;10.820;2022-09-29T06:52:42;5.63;;;3.70;;
11191;SDS011;5652;48.406;10.820;2022-09-29T06:55:10;5.10;;;3.40;;
11191;SDS011;5652;48.406;10.820;2022-09-29T06:57:38;5.63;;;3.90;;
11191;SDS011;5652;48.406;10.820;2022-09-29T07:00:06;5.72;;;3.63;;
11191;SDS011;5652;48.406;10.820;2022-09-29T07:02:33;8.15;;;4.13;;
11191;SDS011;5652;48.406;10.820;2022-09-29T07:05:00;6.80;;;4.05;;
11191;SDS011;5652;48.406;10.820;2022-09-29T07:07:27;5.70;;;3.95;;
11191;SDS011;5652;48.406;10.820;2022-09-29T07:09:55;5.65;;;3.80;;
11191;SDS011;5652;48.406;10.820;2022-09-29T07:12:23;6.63;;;4.07;;
11191;SDS011;5652;48.406;10.820;2022-09-29T07:14:51;5.35;;;3.60;;
11191;SDS011;5652;48.406;10.820;2022-09-29T07:17:19;4.65;;;3.60;;
11191;SDS011;5652;48.406;10.820;2022-09-29T07:19:46;5.32;;;3.85;;
11191;SDS011;5652;48.406;10.820;2022-09-29T07:22:13;5.95;;;3.80;;
11191;SDS011;5652;48.406;10.820;2022-09-29T07:24:40;4.30;;;3.60;;
11191;SDS011;5652;48.406;10.820;2022-09-29T07:27:08;4.35;;;3.40;;
11191;SDS011;5652;48.406;10.820;2022-09-29T07:29:36;4.60;;;3.42;;
11191;SDS011;5652;48.406;10.820;2022-09-29T07:32:03;5.22;;;3.40;;
11191;SDS011;5652;48.406;10.820;2022-09-29T07:34:31;4.13;;;3.33;;
11191;SDS011;5652;48.406;10.820;2022-09-29T07:36:59;4.43;;;3.38;;
11191;SDS011;5652;48.406;10.820;2022-09-29T07:39:27;4.15;;;3.42;;
11191;SDS011;5652;48.406;10.820;2022-09-29T07:41:54;5.45;;;3.40;;
11191;SDS011;5652;48.406;10.820;2022-09-29T07:44:22;5.05;;;3.65;;
11191;SDS011;5652;48.406;10.820;2022-09-29T07:46:52;5.63;;;3.65;;
11191;SDS011;5652;48.406;10.820;2022-09-29T07:49:19;5.10;;;3.40;;
11191;SDS011;5652;48.406;10.820;2022-09-29T07:51:46;4.60;;;3.30;;
11191;SDS011;5652;48.406;10.820;2022-09-29T07:54:13;4.30;;;3.20;;
11191;SDS011;5652;48.406;10.820;2022-09-29T07:56:41;4.65;;;3.28;;
11191;SDS011;5652;48.406;10.820;2022-09-29T07:59:09;5.35;;;3.70;;
11191;SDS011;5652;48.406;10.820;2022-09-29T08:01:36;4.40;;;3.38;;
11191;SDS011;5652;48.406;10.820;2022-09-29T08:04:05;4.47;;;3.30;;
11191;SDS011;5652;48.406;10.820;2022-09-29T08:06:32;4.55;;;3.22;;
11191;SDS011;5652;48.406;10.820;2022-09-29T08:09:00;4.30;;;3.30;;
11191;SDS011;5652;48.406;10.820;2022-09-29T08:11:27;6.22;;;3.60;;
11191;SDS011;5652;48.406;10.820;2022-09-29T08:13:55;4.40;;;3.30;;
11191;SDS011;5652;48.406;10.820;2022-09-29T08:16:22;4.45;;;3.42;;
11191;SDS011;5652;48.406;10.820;2022-09-29T08:18:50;6.05;;;3.60;;
11191;SDS011;5652;48.406;10.820;2022-09-29T08:21:19;5.47;;;3.80;;
11191;SDS011;5652;48.406;10.820;2022-09-29T08:23:46;7.97;;;3.90;;
11191;SDS011;5652;48.406;10.820;2022-09-29T08:26:14;6.20;;;3.70;;
11191;SDS011;5652;48.406;10.820;2022-09-29T08:28:43;8.57;;;3.75;;
11191;SDS011;5652;48.406;10.820;2022-09-29T08:31:13;5.72;;;3.60;;
11191;SDS011;5652;48.406;10.820;2022-09-29T08:33:40;4.07;;;3.30;;
11191;SDS011;5652;48.406;10.820;2022-09-29T08:36:09;5.75;;;3.25;;
11191;SDS011;5652;48.406;10.820;2022-09-29T08:38:42;5.05;;;3.47;;
11191;SDS011;5652;48.406;10.820;2022-09-29T08:41:18;4.38;;;3.25;;
11191;SDS011;5652;48.406;10.820;2022-09-29T08:43:46;7.97;;;3.28;;
11191;SDS011;5652;48.406;10.820;2022-09-29T08:46:17;4.47;;;3.10;;
11191;SDS011;5652;48.406;10.820;2022-09-29T08:48:47;6.05;;;3.20;;
11191;SDS011;5652;48.406;10.820;2022-09-29T08:51:18;3.95;;;3.20;;
11191;SDS011;5652;48.406;10.820;2022-09-29T08:53:49;5.60;;;3.30;;
11191;SDS011;5652;48.406;10.820;2022-09-29T08:56:18;5.65;;;2.80;;
11191;SDS011;5652;48.406;10.820;2022-09-29T08:58:45;3.15;;;2.63;;
11191;SDS011;5652;48.406;10.820;2022-09-29T09:01:16;4.53;;;3.25;;
11191;SDS011;5652;48.406;10.820;2022-09-29T09:03:56;3.60;;;2.70;;
11191;SDS011;5652;48.406;10.820;2022-09-29T09:06:31;3.97;;;2.30;;
11191;SDS011;5652;48.406;10.820;2022-09-29T09:09:23;3.35;;;2.10;;
11191;SDS011;5652;48.406;10.820;2022-09-29T09:11:55;2.63;;;2.00;;
11191;SDS011;5652;48.406;10.820;2022-09-29T09:14:35;3.03;;;2.30;;
11191;SDS011;5652;48.406;10.820;2022-09-29T09:17:08;3.10;;;2.20;;
11191;SDS011;5652;48.406;10.820;2022-09-29T09:19:46;2.78;;;2.08;;
11191;SDS011;5652;48.406;10.820;2022-09-29T09:22:19;2.53;;;2.00;;
11191;SDS011;5652;48.406;10.820;2022-09-29T09:24:50;2.60;;;2.07;;
11191;SDS011;5652;48.406;10.820;2022-09-29T09:27:22;2.30;;;1.85;;
11191;SDS011;5652;48.406;10.820;2022-09-29T09:29:52;2.60;;;1.98;;
11191;SDS011;5652;48.406;10.820;2022-09-29T09:32:24;4.80;;;2.10;;
11191;SDS011;5652;48.406;10.820;2022-09-29T09:34:54;2.30;;;1.90;;
11191;SDS011;5652;48.406;10.820;2022-09-29T09:37:24;2.20;;;1.92;;
11191;SDS011;5652;48.406;10.820;2022-09-29T09:39:55;3.03;;;2.00;;
11191;SDS011;5652;48.406;10.820;2022-09-29T09:42:24;2.78;;;1.90;;
11191;SDS011;5652;48.406;10.820;2022-09-29T09:44:54;2.30;;;2.00;;
11191;SDS011;5652;48.406;10.820;2022-09-29T09:47:24;2.17;;;1.88;;
11191;SDS011;5652;48.406;10.820;2022-09-29T09:49:53;3.13;;;2.28;;
11191;SDS011;5652;48.406;10.820;2022-09-29T09:52:23;3.70;;;2.15;;
11191;SDS011;5652;48.406;10.820;2022-09-29T09:54:51;2.70;;;2.00;;
11191;SDS011;5652;48.406;10.820;2022-09-29T09:57:28;3.63;;;2.03;;
11191;SDS011;5652;48.406;10.820;2022-09-29T10:00:06;2.20;;;1.80;;
11191;SDS011;5652;48.406;10.820;2022-09-29T10:02:35;2.13;;;1.80;;
11191;SDS011;5652;48.406;10.820;2022-09-29T10:05:08;2.20;;;1.70;;
11191;SDS011;5652;48.406;10.820;2022-09-29T10:07:37;2.70;;;1.80;;
11191;SDS011;5652;48.406;10.820;2022-09-29T10:10:04;2.05;;;1.70;;
11191;SDS011;5652;48.406;10.820;2022-09-29T10:12:40;3.28;;;1.90;;
11191;SDS011;5652;48.406;10.820;2022-09-29T10:15:16;3.20;;;2.00;;
11191;SDS011;5652;48.406;10.820;2022-09-29T10:17:45;3.08;;;1.95;;
11191;SDS011;5652;48.406;10.820;2022-09-29T10:20:14;3.63;;;2.10;;
11191;SDS011;5652;48.406;10.820;2022-09-29T10:22:56;2.10;;;1.90;;
11191;SDS011;5652;48.406;10.820;2022-09-29T10:25:29;2.42;;;1.90;;
11191;SDS011;5652;48.406;10.820;2022-09-29T10:28:00;2.03;;;1.75;;
11191;SDS011;5652;48.406;10.820;2022-09-29T10:30:30;2.40;;;2.20;;
11191;SDS011;5652;48.406;10.820;2022-09-29T10:33:00;2.97;;;1.85;;
11191;SDS011;5652;48.406;10.820;2022-09-29T10:35:31;2.30;;;1.70;;
11191;SDS011;5652;48.406;10.820;2022-09-29T10:37:59;4.97;;;2.10;;
11191;SDS011;5652;48.406;10.820;2022-09-29T10:40:27;2.10;;;1.90;;
11191;SDS011;5652;48.406;10.820;2022-09-29T10:42:55;2.78;;;2.00;;
11191;SDS011;5652;48.406;10.820;2022-09-29T10:45:25;2.17;;;1.98;;
11191;SDS011;5652;48.406;10.820;2022-09-29T10:48:06;2.60;;;2.10;;
11191;SDS011;5652;48.406;10.820;2022-09-29T10:50:34;2.35;;;2.10;;
11191;SDS011;5652;48.406;10.820;2022-09-29T10:53:04;3.88;;;2.17;;
11191;SDS011;5652;48.406;10.820;2022-09-29T10:55:33;2.70;;;2.25;;
11191;SDS011;5652;48.406;10.820;2022-09-29T10:58:03;3.58;;;2.08;;
11191;SDS011;5652;48.406;10.820;2022-09-29T11:00:34;2.38;;;2.05;;
11191;SDS011;5652;48.406;10.820;2022-09-29T11:03:05;5.07;;;2.25;;
11191;SDS011;5652;48.406;10.820;2022-09-29T11:05:34;2.03;;;1.70;;
11191;SDS011;5652;48.406;10.820;2022-09-29T11:08:02;2.40;;;2.00;;
11191;SDS011;5652;48.406;10.820;2022-09-29T11:10:31;2.10;;;1.70;;
11191;SDS011;5652;48.406;10.820;2022-09-29T11:13:02;2.80;;;2.00;;
11191;SDS011;5652;48.406;10.820;2022-09-29T11:15:50;2.20;;;1.85;;
11191;SDS011;5652;48.406;10.820;2022-09-29T11:18:19;3.90;;;2.13;;
11191;SDS011;5652;48.406;10.820;2022-09-29T11:20:48;3.20;;;2.10;;
11191;SDS011;5652;48.406;10.820;2022-09-29T11:23:19;3.80;;;2.20;;
11191;SDS011;5652;48.406;10.820;2022-09-29T11:26:02;2.22;;;1.83;;
11191;SDS011;5652;48.406;10.820;2022-09-29T11:31:26;5.18;;;1.70;;
11191;SDS011;5652;48.406;10.820;2022-09-29T11:34:01;2.77;;;1.80;;
11191;SDS011;5652;48.406;10.820;2022-09-29T11:36:31;2.00;;;1.80;;
11191;SDS011;5652;48.406;10.820;2022-09-29T11:39:05;2.10;;;1.90;;
11191;SDS011;5652;48.406;10.820;2022-09-29T11:41:48;2.10;;;1.70;;
11191;SDS011;5652;48.406;10.820;2022-09-29T11:44:28;2.53;;;1.60;;
11191;SDS011;5652;48.406;10.820;2022-09-29T11:47:03;2.28;;;2.05;;
11191;SDS011;5652;48.406;10.820;2022-09-29T11:49:42;2.80;;;1.70;;
11191;SDS011;5652;48.406;10.820;2022-09-29T11:52:17;2.80;;;1.50;;
11191;SDS011;5652;48.406;10.820;2022-09-29T11:57:34;1.83;;;1.60;;
11191;SDS011;5652;48.406;10.820;2022-09-29T12:00:04;4.90;;;1.80;;
11191;SDS011;5652;48.406;10.820;2022-09-29T12:02:44;2.25;;;1.80;;
11191;SDS011;5652;48.406;10.820;2022-09-29T12:05:16;2.42;;;1.42;;
11191;SDS011;5652;48.406;10.820;2022-09-29T12:07:45;1.20;;;1.10;;
11191;SDS011;5652;48.406;10.820;2022-09-29T12:10:19;2.00;;;1.33;;
11191;SDS011;5652;48.406;10.820;2022-09-29T12:12:50;2.47;;;1.70;;
11191;SDS011;5652;48.406;10.820;2022-09-29T12:15:22;1.20;;;1.10;;
11191;SDS011;5652;48.406;10.820;2022-09-29T12:17:53;1.30;;;1.20;;
11191;SDS011;5652;48.406;10.820;2022-09-29T12:20:23;1.10;;;1.00;;
11191;SDS011;5652;48.406;10.820;2022-09-29T12:22:52;3.00;;;1.35;;
11191;SDS011;5652;48.406;10.820;2022-09-29T12:25:21;0.88;;;0.85;;
11191;SDS011;5652;48.406;10.820;2022-09-29T12:27:51;1.20;;;1.00;;
11191;SDS011;5652;48.406;10.820;2022-09-29T12:30:20;1.25;;;1.00;;
11191;SDS011;5652;48.406;10.820;2022-09-29T12:32:49;1.52;;;1.10;;
11191;SDS011;5652;48.406;10.820;2022-09-29T12:35:24;1.95;;;1.40;;
11191;SDS011;5652;48.406;10.820;2022-09-29T12:37:55;2.58;;;1.20;;
11191;SDS011;5652;48.406;10.820;2022-09-29T12:40:24;1.90;;;1.30;;
11191;SDS011;5652;48.406;10.820;2022-09-29T12:43:09;2.00;;;1.40;;
11191;SDS011;5652;48.406;10.820;2022-09-29T12:45:41;1.70;;;1.23;;
11191;SDS011;5652;48.406;10.820;2022-09-29T12:48:15;2.50;;;1.60;;
11191;SDS011;5652;48.406;10.820;2022-09-29T12:50:45;1.88;;;1.50;;
11191;SDS011;5652;48.406;10.820;2022-09-29T12:53:14;2.13;;;1.70;;
11191;SDS011;5652;48.406;10.820;2022-09-29T12:55:45;3.22;;;1.40;;
11191;SDS011;5652;48.406;10.820;2022-09-29T12:58:15;3.45;;;1.67;;
11191;SDS011;5652;48.406;10.820;2022-09-29T13:00:46;2.00;;;1.43;;
11191;SDS011;5652;48.406;10.820;2022-09-29T13:06:08;2.17;;;1.60;;
11191;SDS011;5652;48.406;10.820;2022-09-29T13:08:42;2.47;;;1.45;;
11191;SDS011;5652;48.406;10.820;2022-09-29T13:11:18;2.23;;;1.43;;
11191;SDS011;5652;48.406;10.820;2022-09-29T13:14:00;2.30;;;1.50;;
11191;SDS011;5652;48.406;10.820;2022-09-29T13:16:43;1.80;;;1.33;;
11191;SDS011;5652;48.406;10.820;2022-09-29T13:19:26;1.77;;;1.20;;
11191;SDS011;5652;48.406;10.820;2022-09-29T13:22:04;1.40;;;1.30;;
11191;SDS011;5652;48.406;10.820;2022-09-29T13:24:42;2.10;;;1.30;;
11191;SDS011;5652;48.406;10.820;2022-09-29T13:27:19;2.05;;;1.60;;
11191;SDS011;5652;48.406;10.820;2022-09-29T13:29:51;2.00;;;1.50;;
11191;SDS011;5652;48.406;10.820;2022-09-29T13:32:20;2.37;;;1.70;;
11191;SDS011;5652;48.406;10.820;2022-09-29T13:34:52;4.37;;;1.50;;
11191;SDS011;5652;48.406;10.820;2022-09-29T13:37:22;2.55;;;1.80;;
11191;SDS011;5652;48.406;10.820;2022-09-29T13:39:51;1.98;;;1.60;;
11191;SDS011;5652;48.406;10.820;2022-09-29T13:42:27;2.20;;;1.60;;
11191;SDS011;5652;48.406;10.820;2022-09-29T13:47:49;1.73;;;1.50;;
11191;SDS011;5652;48.406;10.820;2022-09-29T13:53:32;1.55;;;1.40;;
11191;SDS011;5652;48.406;10.820;2022-09-29T13:56:10;2.73;;;1.70;;
11191;SDS011;5652;48.406;10.820;2022-09-29T13:58:54;2.78;;;1.90;;
11191;SDS011;5652;48.406;10.820;2022-09-29T14:01:30;3.05;;;2.00;;
11191;SDS011;5652;48.406;10.820;2022-09-29T14:06:42;2.47;;;1.80;;
11191;SDS011;5652;48.406;10.820;2022-09-29T14:09:14;2.33;;;1.58;;
11191;SDS011;5652;48.406;10.820;2022-09-29T14:11:43;2.33;;;1.70;;
11191;SDS011;5652;48.406;10.820;2022-09-29T14:14:14;2.08;;;1.58;;
11191;SDS011;5652;48.406;10.820;2022-09-29T14:16:44;4.88;;;2.13;;
11191;SDS011;5652;48.406;10.820;2022-09-29T14:19:21;1.90;;;1.50;;
11191;SDS011;5652;48.406;10.820;2022-09-29T14:21:52;2.10;;;1.45;;
11191;SDS011;5652;48.406;10.820;2022-09-29T14:27:20;1.93;;;1.40;;
11191;SDS011;5652;48.406;10.820;2022-09-29T14:29:52;2.47;;;1.80;;
11191;SDS011;5652;48.406;10.820;2022-09-29T14:32:22;4.20;;;2.33;;
11191;SDS011;5652;48.406;10.820;2022-09-29T14:34:54;3.53;;;2.05;;
11191;SDS011;5652;48.406;10.820;2022-09-29T14:37:22;3.85;;;2.00;;
11191;SDS011;5652;48.406;10.820;2022-09-29T14:39:50;3.20;;;2.30;;
11191;SDS011;5652;48.406;10.820;2022-09-29T14:42:33;3.28;;;2.03;;
11191;SDS011;5652;48.406;10.820;2022-09-29T14:45:01;2.80;;;2.17;;
11191;SDS011;5652;48.406;10.820;2022-09-29T14:47:47;4.38;;;3.15;;
11191;SDS011;5652;48.406;10.820;2022-09-29T14:50:37;4.10;;;2.65;;
11191;SDS011;5652;48.406;10.820;2022-09-29T14:53:51;4.43;;;2.83;;
11191;SDS011;5652;48.406;10.820;2022-09-29T14:56:32;3.67;;;2.60;;
11191;SDS011;5652;48.406;10.820;2022-09-29T14:59:07;4.60;;;2.80;;
11191;SDS011;5652;48.406;10.820;2022-09-29T15:01:37;6.40;;;3.28;;
11191;SDS011;5652;48.406;10.820;2022-09-29T15:04:09;5.30;;;2.60;;
11191;SDS011;5652;48.406;10.820;2022-09-29T15:06:44;3.55;;;2.28;;
11191;SDS011;5652;48.406;10.820;2022-09-29T15:09:14;5.38;;;2.65;;
11191;SDS011;5652;48.406;10.820;2022-09-29T15:11:42;6.57;;;2.80;;
11191;SDS011;5652;48.406;10.820;2022-09-29T15:14:21;3.53;;;1.80;;
11191;SDS011;5652;48.406;10.820;2022-09-29T15:16:49;4.18;;;1.75;;
11191;SDS011;5652;48.406;10.820;2022-09-29T15:19:23;2.67;;;1.70;;
11191;SDS011;5652;48.406;10.820;2022-09-29T15:21:54;1.85;;;1.40;;
11191;SDS011;5652;48.406;10.820;2022-09-29T15:24:40;3.63;;;1.52;;
11191;SDS011;5652;48.406;10.820;2022-09-29T15:27:11;2.47;;;1.40;;
11191;SDS011;5652;48.406;10.820;2022-09-29T15:29:40;2.17;;;1.40;;